sensor_id;sensor_type;location;lat;lon;timestamp;temperature;humidity
22471;DHT22;11402;51.374;6.594;2024-02-15T01:56:14;12.10;99.90
22471;DHT22;11402;51.374;6.594;2024-02-15T01:58:41;12.40;99.90
22471;DHT22;11402;51.374;6.594;2024-02-15T02:01:08;12.50;99.90
22471;DHT22;11402;51.374;6.594;2024-02-15T02:03:33;12.40;99.90
22471;DHT22;11402;51.374;6.594;2024-02-15T02:06:00;12.40;99.90
22471;DHT22;11402;51.374;6.594;2024-02-15T02:08:25;12.40;99.90
22471;DHT22;11402;51.374;6.594;2024-02-15T02:10:51;12.40;99.90
22471;DHT22;11402;51.374;6.594;2024-02-15T02:13:17;12.50;99.90
22471;DHT22;11402;51.374;6.594;2024-02-15T02:15:42;12.40;99.90
22471;DHT22;11402;51.374;6.594;2024-02-15T02:18:08;12.40;99.90
22471;DHT22;11402;51.374;6.594;2024-02-15T02:20:35;12.50;99.90
22471;DHT22;11402;51.374;6.594;2024-02-15T02:23:07;12.50;99.90
22471;DHT22;11402;51.374;6.594;2024-02-15T02:25:32;12.40;99.90
22471;DHT22;11402;51.374;6.594;2024-02-15T02:27:59;12.50;99.90
22471;DHT22;11402;51.374;6.594;2024-02-15T02:30:25;12.50;99.90
22471;DHT22;11402;51.374;6.594;2024-02-15T02:32:55;12.60;99.90
22471;DHT22;11402;51.374;6.594;2024-02-15T02:35:20;12.50;99.90
22471;DHT22;11402;51.374;6.594;2024-02-15T02:37:46;12.50;99.90
22471;DHT22;11402;51.374;6.594;2024-02-15T02:40:11;12.50;99.90
22471;DHT22;11402;51.374;6.594;2024-02-15T02:42:48;12.50;99.90
22471;DHT22;11402;51.374;6.594;2024-02-15T02:45:13;12.40;99.90
22471;DHT22;11402;51.374;6.594;2024-02-15T02:47:39;12.40;99.90
22471;DHT22;11402;51.374;6.594;2024-02-15T02:50:04;12.40;99.90
22471;DHT22;11402;51.374;6.594;2024-02-15T02:52:30;12.40;99.90
22471;DHT22;11402;51.374;6.594;2024-02-15T02:54:55;12.40;99.90
22471;DHT22;11402;51.374;6.594;2024-02-15T02:57:21;12.40;99.90
22471;DHT22;11402;51.374;6.594;2024-02-15T02:59:46;12.40;99.90
22471;DHT22;11402;51.374;6.594;2024-02-15T03:02:12;12.40;99.90
22471;DHT22;11402;51.374;6.594;2024-02-15T03:04:38;12.40;99.90
22471;DHT22;11402;51.374;6.594;2024-02-15T03:07:05;12.50;99.90
22471;DHT22;11402;51.374;6.594;2024-02-15T03:09:31;12.50;99.90
22471;DHT22;11402;51.374;6.594;2024-02-15T03:11:56;12.40;99.90
22471;DHT22;11402;51.374;6.594;2024-02-15T03:14:22;12.40;99.90
22471;DHT22;11402;51.374;6.594;2024-02-15T03:16:48;12.40;99.90
22471;DHT22;11402;51.374;6.594;2024-02-15T03:19:13;12.50;99.90
22471;DHT22;11402;51.374;6.594;2024-02-15T03:21:39;12.60;99.90
22471;DHT22;11402;51.374;6.594;2024-02-15T03:31:29;12.40;99.90
22471;DHT22;11402;51.374;6.594;2024-02-15T03:33:56;12.60;99.90
22471;DHT22;11402;51.374;6.594;2024-02-15T03:36:22;12.60;99.90
22471;DHT22;11402;51.374;6.594;2024-02-15T03:38:48;12.50;99.90
22471;DHT22;11402;51.374;6.594;2024-02-15T03:41:13;12.50;99.90
22471;DHT22;11402;51.374;6.594;2024-02-15T03:43:39;12.50;99.90
22471;DHT22;11402;51.374;6.594;2024-02-15T03:46:05;12.60;99.90
22471;DHT22;11402;51.374;6.594;2024-02-15T03:48:32;12.70;99.90
22471;DHT22;11402;51.374;6.594;2024-02-15T03:50:58;12.60;99.90
22471;DHT22;11402;51.374;6.594;2024-02-15T03:53:23;12.60;99.90
22471;DHT22;11402;51.374;6.594;2024-02-15T03:55:49;12.70;99.90
22471;DHT22;11402;51.374;6.594;2024-02-15T03:58:18;12.60;99.90
22471;DHT22;11402;51.374;6.594;2024-02-15T04:00:45;12.60;99.90
22471;DHT22;11402;51.374;6.594;2024-02-15T04:03:10;12.60;99.90
22471;DHT22;11402;51.374;6.594;2024-02-15T04:05:36;12.50;99.90
22471;DHT22;11402;51.374;6.594;2024-02-15T04:08:01;12.60;99.90
22471;DHT22;11402;51.374;6.594;2024-02-15T04:10:27;12.40;99.90
22471;DHT22;11402;51.374;6.594;2024-02-15T04:12:53;12.40;99.90
22471;DHT22;11402;51.374;6.594;2024-02-15T04:15:19;12.40;99.90
22471;DHT22;11402;51.374;6.594;2024-02-15T04:17:44;12.40;99.90
22471;DHT22;11402;51.374;6.594;2024-02-15T04:20:10;12.40;99.90
22471;DHT22;11402;51.374;6.594;2024-02-15T04:22:37;12.50;99.90
22471;DHT22;11402;51.374;6.594;2024-02-15T04:25:04;12.40;99.90
22471;DHT22;11402;51.374;6.594;2024-02-15T04:27:31;12.30;99.90
22471;DHT22;11402;51.374;6.594;2024-02-15T04:29:57;12.40;99.90
22471;DHT22;11402;51.374;6.594;2024-02-15T04:32:22;12.30;99.90
22471;DHT22;11402;51.374;6.594;2024-02-15T04:34:48;12.30;99.90
22471;DHT22;11402;51.374;6.594;2024-02-15T04:37:13;12.30;99.90
22471;DHT22;11402;51.374;6.594;2024-02-15T04:39:39;12.30;99.90
22471;DHT22;11402;51.374;6.594;2024-02-15T04:42:05;12.30;99.90
22471;DHT22;11402;51.374;6.594;2024-02-15T04:44:32;12.30;99.90
22471;DHT22;11402;51.374;6.594;2024-02-15T04:47:00;12.40;99.90
22471;DHT22;11402;51.374;6.594;2024-02-15T04:49:26;12.40;99.90
22471;DHT22;11402;51.374;6.594;2024-02-15T04:51:54;12.30;99.90
22471;DHT22;11402;51.374;6.594;2024-02-15T04:54:19;12.30;99.90
22471;DHT22;11402;51.374;6.594;2024-02-15T04:56:45;12.30;99.90
22471;DHT22;11402;51.374;6.594;2024-02-15T04:59:11;12.40;99.90
22471;DHT22;11402;51.374;6.594;2024-02-15T05:01:42;12.40;99.90
22471;DHT22;11402;51.374;6.594;2024-02-15T05:04:09;12.40;99.90
22471;DHT22;11402;51.374;6.594;2024-02-15T05:06:35;12.40;99.90
22471;DHT22;11402;51.374;6.594;2024-02-15T05:09:02;12.40;99.90
22471;DHT22;11402;51.374;6.594;2024-02-15T05:11:32;12.30;99.90
22471;DHT22;11402;51.374;6.594;2024-02-15T05:14:01;12.40;99.90
22471;DHT22;11402;51.374;6.594;2024-02-15T05:16:26;12.40;99.90
22471;DHT22;11402;51.374;6.594;2024-02-15T05:18:52;12.40;99.90
22471;DHT22;11402;51.374;6.594;2024-02-15T05:21:18;12.30;99.90
22471;DHT22;11402;51.374;6.594;2024-02-15T05:23:45;12.40;99.90
22471;DHT22;11402;51.374;6.594;2024-02-15T05:26:11;12.30;99.90
22471;DHT22;11402;51.374;6.594;2024-02-15T05:28:37;12.30;99.90
22471;DHT22;11402;51.374;6.594;2024-02-15T05:31:17;12.40;99.90
22471;DHT22;11402;51.374;6.594;2024-02-15T05:33:46;12.30;99.90
22471;DHT22;11402;51.374;6.594;2024-02-15T05:36:13;12.20;99.90
22471;DHT22;11402;51.374;6.594;2024-02-15T05:38:38;12.20;99.90
22471;DHT22;11402;51.374;6.594;2024-02-15T05:41:04;12.40;99.90
22471;DHT22;11402;51.374;6.594;2024-02-15T05:43:30;12.40;99.90
22471;DHT22;11402;51.374;6.594;2024-02-15T05:45:57;12.30;99.90
22471;DHT22;11402;51.374;6.594;2024-02-15T05:48:24;12.40;99.90
22471;DHT22;11402;51.374;6.594;2024-02-15T05:50:49;12.30;99.90
22471;DHT22;11402;51.374;6.594;2024-02-15T05:53:15;12.40;99.90
22471;DHT22;11402;51.374;6.594;2024-02-15T05:55:41;12.50;99.90
22471;DHT22;11402;51.374;6.594;2024-02-15T05:58:09;12.40;99.90
22471;DHT22;11402;51.374;6.594;2024-02-15T06:00:36;12.20;99.90
22471;DHT22;11402;51.374;6.594;2024-02-15T06:03:04;12.20;99.90
22471;DHT22;11402;51.374;6.594;2024-02-15T06:05:29;12.20;99.90
22471;DHT22;11402;51.374;6.594;2024-02-15T06:07:55;12.20;99.90
22471;DHT22;11402;51.374;6.594;2024-02-15T06:10:22;12.40;99.90
22471;DHT22;11402;51.374;6.594;2024-02-15T06:12:48;12.40;99.90
22471;DHT22;11402;51.374;6.594;2024-02-15T06:15:14;12.30;99.90
22471;DHT22;11402;51.374;6.594;2024-02-15T06:17:46;12.30;99.90
22471;DHT22;11402;51.374;6.594;2024-02-15T06:20:15;12.30;99.90
22471;DHT22;11402;51.374;6.594;2024-02-15T06:22:43;12.30;99.90
22471;DHT22;11402;51.374;6.594;2024-02-15T06:25:08;12.30;99.90
22471;DHT22;11402;51.374;6.594;2024-02-15T06:27:36;12.30;99.90
22471;DHT22;11402;51.374;6.594;2024-02-15T06:30:06;12.30;99.90
22471;DHT22;11402;51.374;6.594;2024-02-15T06:32:50;12.40;99.90
22471;DHT22;11402;51.374;6.594;2024-02-15T06:35:34;12.30;99.90
22471;DHT22;11402;51.374;6.594;2024-02-15T06:38:18;12.30;99.90
22471;DHT22;11402;51.374;6.594;2024-02-15T06:41:03;12.20;99.90
22471;DHT22;11402;51.374;6.594;2024-02-15T06:43:28;12.20;99.90
22471;DHT22;11402;51.374;6.594;2024-02-15T06:45:56;12.10;99.90
22471;DHT22;11402;51.374;6.594;2024-02-15T06:48:23;12.10;99.90
22471;DHT22;11402;51.374;6.594;2024-02-15T06:50:50;12.20;99.90
22471;DHT22;11402;51.374;6.594;2024-02-15T06:53:16;12.20;99.90
22471;DHT22;11402;51.374;6.594;2024-02-15T07:00:35;12.20;99.90
22471;DHT22;11402;51.374;6.594;2024-02-15T07:10:20;12.20;99.90
22471;DHT22;11402;51.374;6.594;2024-02-15T07:12:46;12.20;99.90
22471;DHT22;11402;51.374;6.594;2024-02-15T07:22:31;12.30;99.90
22471;DHT22;11402;51.374;6.594;2024-02-15T07:39:40;11.90;99.90
22471;DHT22;11402;51.374;6.594;2024-02-15T07:42:06;12.10;99.90
22471;DHT22;11402;51.374;6.594;2024-02-15T07:44:34;12.20;99.90
22471;DHT22;11402;51.374;6.594;2024-02-15T07:47:01;12.20;99.90
22471;DHT22;11402;51.374;6.594;2024-02-15T07:49:27;12.20;99.90
22471;DHT22;11402;51.374;6.594;2024-02-15T07:51:53;12.30;99.90
22471;DHT22;11402;51.374;6.594;2024-02-15T07:54:19;12.40;99.90
22471;DHT22;11402;51.374;6.594;2024-02-15T07:56:49;12.40;99.90
22471;DHT22;11402;51.374;6.594;2024-02-15T07:59:14;12.40;99.90
22471;DHT22;11402;51.374;6.594;2024-02-15T08:01:43;12.30;99.90
22471;DHT22;11402;51.374;6.594;2024-02-15T08:04:09;12.30;99.90
22471;DHT22;11402;51.374;6.594;2024-02-15T08:06:34;12.30;99.90
22471;DHT22;11402;51.374;6.594;2024-02-15T08:09:02;12.30;99.90
22471;DHT22;11402;51.374;6.594;2024-02-15T08:11:30;12.20;99.90
22471;DHT22;11402;51.374;6.594;2024-02-15T08:13:55;12.20;99.90
22471;DHT22;11402;51.374;6.594;2024-02-15T08:16:24;12.30;99.90
22471;DHT22;11402;51.374;6.594;2024-02-15T08:18:50;12.30;99.90
22471;DHT22;11402;51.374;6.594;2024-02-15T08:21:28;12.40;99.90
22471;DHT22;11402;51.374;6.594;2024-02-15T08:23:55;12.40;99.90
22471;DHT22;11402;51.374;6.594;2024-02-15T08:26:21;12.30;99.90
22471;DHT22;11402;51.374;6.594;2024-02-15T08:28:46;12.40;99.90
22471;DHT22;11402;51.374;6.594;2024-02-15T08:31:12;12.50;99.90
22471;DHT22;11402;51.374;6.594;2024-02-15T08:33:40;12.40;99.90
22471;DHT22;11402;51.374;6.594;2024-02-15T08:36:06;12.40;99.90
22471;DHT22;11402;51.374;6.594;2024-02-15T08:38:32;12.50;99.90
22471;DHT22;11402;51.374;6.594;2024-02-15T08:40:59;12.50;99.90
22471;DHT22;11402;51.374;6.594;2024-02-15T08:43:25;12.50;99.90
22471;DHT22;11402;51.374;6.594;2024-02-15T08:45:50;12.50;99.90
22471;DHT22;11402;51.374;6.594;2024-02-15T08:48:15;12.50;99.90
22471;DHT22;11402;51.374;6.594;2024-02-15T08:50:41;12.40;99.90
22471;DHT22;11402;51.374;6.594;2024-02-15T08:53:07;12.60;99.90
22471;DHT22;11402;51.374;6.594;2024-02-15T08:55:32;12.50;99.90
22471;DHT22;11402;51.374;6.594;2024-02-15T08:58:01;12.50;99.90
22471;DHT22;11402;51.374;6.594;2024-02-15T09:00:27;12.50;99.90
22471;DHT22;11402;51.374;6.594;2024-02-15T09:02:53;12.40;99.90
22471;DHT22;11402;51.374;6.594;2024-02-15T09:05:18;12.70;99.90
22471;DHT22;11402;51.374;6.594;2024-02-15T09:22:32;12.50;99.90
22471;DHT22;11402;51.374;6.594;2024-02-15T09:24:58;12.50;99.90
22471;DHT22;11402;51.374;6.594;2024-02-15T09:27:24;12.50;99.90
22471;DHT22;11402;51.374;6.594;2024-02-15T09:29:49;12.50;99.90
22471;DHT22;11402;51.374;6.594;2024-02-15T09:32:14;12.50;99.90
22471;DHT22;11402;51.374;6.594;2024-02-15T09:34:40;12.60;99.90
22471;DHT22;11402;51.374;6.594;2024-02-15T09:37:07;12.60;99.90
22471;DHT22;11402;51.374;6.594;2024-02-15T09:39:32;12.60;99.90
22471;DHT22;11402;51.374;6.594;2024-02-15T09:41:58;12.70;99.90
22471;DHT22;11402;51.374;6.594;2024-02-15T09:44:26;12.70;99.90
22471;DHT22;11402;51.374;6.594;2024-02-15T09:47:04;12.70;99.90
22471;DHT22;11402;51.374;6.594;2024-02-15T09:49:37;12.80;99.90
22471;DHT22;11402;51.374;6.594;2024-02-15T09:52:07;12.90;99.90
22471;DHT22;11402;51.374;6.594;2024-02-15T09:54:43;13.00;99.90
22471;DHT22;11402;51.374;6.594;2024-02-15T09:57:09;13.00;99.90
22471;DHT22;11402;51.374;6.594;2024-02-15T09:59:36;13.00;99.90
22471;DHT22;11402;51.374;6.594;2024-02-15T10:02:01;13.10;99.90
22471;DHT22;11402;51.374;6.594;2024-02-15T10:04:27;13.10;99.90
22471;DHT22;11402;51.374;6.594;2024-02-15T10:06:53;13.20;99.90
22471;DHT22;11402;51.374;6.594;2024-02-15T10:11:56;13.30;99.90
22471;DHT22;11402;51.374;6.594;2024-02-15T10:14:23;13.20;99.90
22471;DHT22;11402;51.374;6.594;2024-02-15T10:16:48;13.20;99.90
22471;DHT22;11402;51.374;6.594;2024-02-15T10:19:14;13.30;99.90
22471;DHT22;11402;51.374;6.594;2024-02-15T10:21:40;13.30;99.90
22471;DHT22;11402;51.374;6.594;2024-02-15T10:24:06;13.40;99.90
22471;DHT22;11402;51.374;6.594;2024-02-15T10:26:32;13.40;99.90
22471;DHT22;11402;51.374;6.594;2024-02-15T10:29:06;13.30;99.90
22471;DHT22;11402;51.374;6.594;2024-02-15T10:31:36;13.30;99.90
22471;DHT22;11402;51.374;6.594;2024-02-15T10:34:03;13.40;99.90
22471;DHT22;11402;51.374;6.594;2024-02-15T10:36:29;13.40;99.90
22471;DHT22;11402;51.374;6.594;2024-02-15T10:39:07;13.50;99.90
22471;DHT22;11402;51.374;6.594;2024-02-15T10:41:36;13.50;99.90
22471;DHT22;11402;51.374;6.594;2024-02-15T10:44:02;13.60;99.90
22471;DHT22;11402;51.374;6.594;2024-02-15T10:46:28;13.50;99.90
22471;DHT22;11402;51.374;6.594;2024-02-15T10:48:54;13.50;99.90
22471;DHT22;11402;51.374;6.594;2024-02-15T10:51:19;13.60;99.90
22471;DHT22;11402;51.374;6.594;2024-02-15T10:53:47;13.70;99.90
22471;DHT22;11402;51.374;6.594;2024-02-15T10:56:17;13.70;99.90
22471;DHT22;11402;51.374;6.594;2024-02-15T10:58:46;13.80;99.90
22471;DHT22;11402;51.374;6.594;2024-02-15T11:01:12;13.80;99.90
22471;DHT22;11402;51.374;6.594;2024-02-15T11:03:44;13.90;99.90
22471;DHT22;11402;51.374;6.594;2024-02-15T11:06:16;13.90;99.90
22471;DHT22;11402;51.374;6.594;2024-02-15T11:08:43;13.90;99.90
22471;DHT22;11402;51.374;6.594;2024-02-15T11:11:10;14.00;99.90
22471;DHT22;11402;51.374;6.594;2024-02-15T11:13:37;14.00;99.90
22471;DHT22;11402;51.374;6.594;2024-02-15T11:16:03;14.10;99.90
22471;DHT22;11402;51.374;6.594;2024-02-15T11:18:41;14.10;99.90
22471;DHT22;11402;51.374;6.594;2024-02-15T11:21:07;14.20;99.90
22471;DHT22;11402;51.374;6.594;2024-02-15T11:23:33;14.20;99.90
22471;DHT22;11402;51.374;6.594;2024-02-15T11:25:59;14.30;99.90
22471;DHT22;11402;51.374;6.594;2024-02-15T11:30:52;14.40;99.90
22471;DHT22;11402;51.374;6.594;2024-02-15T11:33:31;14.40;99.90
22471;DHT22;11402;51.374;6.594;2024-02-15T11:36:06;14.40;99.90
22471;DHT22;11402;51.374;6.594;2024-02-15T11:38:33;14.40;99.90
22471;DHT22;11402;51.374;6.594;2024-02-15T11:41:00;14.50;99.90
22471;DHT22;11402;51.374;6.594;2024-02-15T11:46:23;14.60;99.90
22471;DHT22;11402;51.374;6.594;2024-02-15T11:48:51;14.70;99.90
22471;DHT22;11402;51.374;6.594;2024-02-15T11:53:58;14.80;99.90
22471;DHT22;11402;51.374;6.594;2024-02-15T11:56:24;14.70;99.90
22471;DHT22;11402;51.374;6.594;2024-02-15T11:59:01;14.80;99.90
22471;DHT22;11402;51.374;6.594;2024-02-15T12:01:27;14.80;99.90
22471;DHT22;11402;51.374;6.594;2024-02-15T12:04:12;14.80;99.90
22471;DHT22;11402;51.374;6.594;2024-02-15T12:06:58;14.90;99.90
22471;DHT22;11402;51.374;6.594;2024-02-15T12:09:42;14.90;99.90
22471;DHT22;11402;51.374;6.594;2024-02-15T12:12:26;15.10;99.90
22471;DHT22;11402;51.374;6.594;2024-02-15T12:15:10;15.20;99.90
22471;DHT22;11402;51.374;6.594;2024-02-15T12:17:55;15.20;99.90
22471;DHT22;11402;51.374;6.594;2024-02-15T12:20:39;15.30;99.90
22471;DHT22;11402;51.374;6.594;2024-02-15T12:23:04;15.30;99.90
22471;DHT22;11402;51.374;6.594;2024-02-15T12:27:58;15.40;99.90
22471;DHT22;11402;51.374;6.594;2024-02-15T12:32:51;15.50;99.90
22471;DHT22;11402;51.374;6.594;2024-02-15T12:35:20;15.60;99.90
22471;DHT22;11402;51.374;6.594;2024-02-15T12:37:46;15.60;99.90
22471;DHT22;11402;51.374;6.594;2024-02-15T12:40:12;15.60;99.90
22471;DHT22;11402;51.374;6.594;2024-02-15T12:42:41;15.60;99.90
22471;DHT22;11402;51.374;6.594;2024-02-15T12:45:07;15.70;99.90
22471;DHT22;11402;51.374;6.594;2024-02-15T12:47:39;15.70;99.90
22471;DHT22;11402;51.374;6.594;2024-02-15T12:50:18;15.70;99.90
22471;DHT22;11402;51.374;6.594;2024-02-15T12:52:51;15.80;99.90
22471;DHT22;11402;51.374;6.594;2024-02-15T12:55:19;15.80;99.90
22471;DHT22;11402;51.374;6.594;2024-02-15T12:57:46;15.80;99.90
22471;DHT22;11402;51.374;6.594;2024-02-15T13:00:14;15.80;99.90
22471;DHT22;11402;51.374;6.594;2024-02-15T13:02:49;15.80;99.90
22471;DHT22;11402;51.374;6.594;2024-02-15T13:05:15;15.90;99.90
22471;DHT22;11402;51.374;6.594;2024-02-15T13:07:44;15.90;99.90
22471;DHT22;11402;51.374;6.594;2024-02-15T13:10:09;15.90;99.90
22471;DHT22;11402;51.374;6.594;2024-02-15T13:12:36;15.90;99.90
22471;DHT22;11402;51.374;6.594;2024-02-15T13:15:03;15.90;99.90
22471;DHT22;11402;51.374;6.594;2024-02-15T13:17:29;16.00;99.90
22471;DHT22;11402;51.374;6.594;2024-02-15T13:19:54;16.00;99.90
22471;DHT22;11402;51.374;6.594;2024-02-15T13:22:28;16.00;99.90
22471;DHT22;11402;51.374;6.594;2024-02-15T13:24:54;15.90;99.90
22471;DHT22;11402;51.374;6.594;2024-02-15T13:27:20;16.00;99.90
22471;DHT22;11402;51.374;6.594;2024-02-15T13:29:47;16.00;99.90
22471;DHT22;11402;51.374;6.594;2024-02-15T13:32:12;16.00;99.90
22471;DHT22;11402;51.374;6.594;2024-02-15T13:34:39;16.10;99.90
22471;DHT22;11402;51.374;6.594;2024-02-15T13:37:05;16.10;99.90
22471;DHT22;11402;51.374;6.594;2024-02-15T13:39:30;16.20;99.90
22471;DHT22;11402;51.374;6.594;2024-02-15T13:42:01;16.20;99.90
22471;DHT22;11402;51.374;6.594;2024-02-15T13:44:27;16.20;99.90
22471;DHT22;11402;51.374;6.594;2024-02-15T13:46:52;16.20;99.90
22471;DHT22;11402;51.374;6.594;2024-02-15T13:49:21;16.20;99.90
22471;DHT22;11402;51.374;6.594;2024-02-15T13:51:46;16.30;99.90
22471;DHT22;11402;51.374;6.594;2024-02-15T13:54:12;16.30;99.90
22471;DHT22;11402;51.374;6.594;2024-02-15T13:56:37;16.30;99.90
22471;DHT22;11402;51.374;6.594;2024-02-15T13:59:05;16.30;99.90
22471;DHT22;11402;51.374;6.594;2024-02-15T14:01:30;16.30;99.90
22471;DHT22;11402;51.374;6.594;2024-02-15T14:03:56;16.30;99.90
22471;DHT22;11402;51.374;6.594;2024-02-15T14:06:22;16.30;99.90
22471;DHT22;11402;51.374;6.594;2024-02-15T14:08:47;16.40;99.90
22471;DHT22;11402;51.374;6.594;2024-02-15T14:11:12;16.30;99.90
22471;DHT22;11402;51.374;6.594;2024-02-15T14:13:38;16.30;99.90
22471;DHT22;11402;51.374;6.594;2024-02-15T14:16:04;16.30;99.90
22471;DHT22;11402;51.374;6.594;2024-02-15T14:18:30;16.30;99.90
22471;DHT22;11402;51.374;6.594;2024-02-15T14:20:56;16.30;99.90
22471;DHT22;11402;51.374;6.594;2024-02-15T14:23:21;16.30;99.90
22471;DHT22;11402;51.374;6.594;2024-02-15T14:25:47;16.30;99.90
22471;DHT22;11402;51.374;6.594;2024-02-15T14:28:13;16.30;99.90
22471;DHT22;11402;51.374;6.594;2024-02-15T14:30:39;16.20;99.90
22471;DHT22;11402;51.374;6.594;2024-02-15T14:33:23;16.20;99.90
22471;DHT22;11402;51.374;6.594;2024-02-15T14:35:49;16.20;99.90
22471;DHT22;11402;51.374;6.594;2024-02-15T14:38:15;16.20;99.90
22471;DHT22;11402;51.374;6.594;2024-02-15T14:40:44;16.10;99.90
22471;DHT22;11402;51.374;6.594;2024-02-15T14:43:11;16.10;99.90
22471;DHT22;11402;51.374;6.594;2024-02-15T14:45:38;16.10;99.90
22471;DHT22;11402;51.374;6.594;2024-02-15T14:48:06;16.10;99.90
22471;DHT22;11402;51.374;6.594;2024-02-15T14:50:33;16.10;99.90
22471;DHT22;11402;51.374;6.594;2024-02-15T14:53:00;16.10;99.90
22471;DHT22;11402;51.374;6.594;2024-02-15T14:55:25;16.10;99.90
22471;DHT22;11402;51.374;6.594;2024-02-15T14:57:51;16.00;99.90
22471;DHT22;11402;51.374;6.594;2024-02-15T15:00:16;16.00;99.90
22471;DHT22;11402;51.374;6.594;2024-02-15T15:02:47;15.90;99.90
22471;DHT22;11402;51.374;6.594;2024-02-15T15:05:13;15.90;99.90
22471;DHT22;11402;51.374;6.594;2024-02-15T15:07:57;15.90;99.90
22471;DHT22;11402;51.374;6.594;2024-02-15T15:10:41;15.90;99.90
22471;DHT22;11402;51.374;6.594;2024-02-15T15:13:25;15.90;99.90
22471;DHT22;11402;51.374;6.594;2024-02-15T15:15:51;15.90;99.90
22471;DHT22;11402;51.374;6.594;2024-02-15T15:18:17;15.80;99.90
22471;DHT22;11402;51.374;6.594;2024-02-15T15:20:44;15.80;99.90
22471;DHT22;11402;51.374;6.594;2024-02-15T15:23:09;15.80;99.90
22471;DHT22;11402;51.374;6.594;2024-02-15T15:25:35;15.80;99.90
22471;DHT22;11402;51.374;6.594;2024-02-15T15:28:05;15.70;99.90
22471;DHT22;11402;51.374;6.594;2024-02-15T15:30:31;15.70;99.90
22471;DHT22;11402;51.374;6.594;2024-02-15T15:32:57;15.60;99.90
22471;DHT22;11402;51.374;6.594;2024-02-15T15:35:23;15.60;99.90
22471;DHT22;11402;51.374;6.594;2024-02-15T15:37:49;15.50;99.90
22471;DHT22;11402;51.374;6.594;2024-02-15T15:40:16;15.50;99.90
22471;DHT22;11402;51.374;6.594;2024-02-15T15:42:42;15.50;99.90
22471;DHT22;11402;51.374;6.594;2024-02-15T15:45:08;15.50;99.90
22471;DHT22;11402;51.374;6.594;2024-02-15T15:47:34;15.40;99.90
22471;DHT22;11402;51.374;6.594;2024-02-15T15:50:00;15.40;99.90
22471;DHT22;11402;51.374;6.594;2024-02-15T15:52:26;15.50;99.90
22471;DHT22;11402;51.374;6.594;2024-02-15T15:54:51;15.50;99.90
22471;DHT22;11402;51.374;6.594;2024-02-15T15:57:16;15.40;99.90
22471;DHT22;11402;51.374;6.594;2024-02-15T15:59:42;15.50;99.90
22471;DHT22;11402;51.374;6.594;2024-02-15T16:02:09;15.50;99.90
22471;DHT22;11402;51.374;6.594;2024-02-15T16:04:34;15.50;99.90
22471;DHT22;11402;51.374;6.594;2024-02-15T16:07:00;15.50;99.90
22471;DHT22;11402;51.374;6.594;2024-02-15T16:09:25;15.40;99.90
22471;DHT22;11402;51.374;6.594;2024-02-15T16:11:50;15.50;99.90
22471;DHT22;11402;51.374;6.594;2024-02-15T16:14:18;15.40;99.90
22471;DHT22;11402;51.374;6.594;2024-02-15T16:16:44;15.40;99.90
22471;DHT22;11402;51.374;6.594;2024-02-15T16:19:09;15.30;99.90
22471;DHT22;11402;51.374;6.594;2024-02-15T16:21:35;15.30;99.90
22471;DHT22;11402;51.374;6.594;2024-02-15T16:24:00;15.30;99.90
22471;DHT22;11402;51.374;6.594;2024-02-15T16:26:26;15.20;99.90
22471;DHT22;11402;51.374;6.594;2024-02-15T16:28:51;15.20;99.90
22471;DHT22;11402;51.374;6.594;2024-02-15T16:31:17;15.20;99.90
22471;DHT22;11402;51.374;6.594;2024-02-15T16:33:42;15.20;99.90
22471;DHT22;11402;51.374;6.594;2024-02-15T16:36:08;15.10;99.90
22471;DHT22;11402;51.374;6.594;2024-02-15T16:38:33;15.10;99.90
22471;DHT22;11402;51.374;6.594;2024-02-15T16:41:02;15.10;99.90
22471;DHT22;11402;51.374;6.594;2024-02-15T16:43:28;15.10;99.90
22471;DHT22;11402;51.374;6.594;2024-02-15T16:45:54;15.10;99.90
22471;DHT22;11402;51.374;6.594;2024-02-15T16:48:20;15.00;99.90
22471;DHT22;11402;51.374;6.594;2024-02-15T16:50:45;15.00;99.90
22471;DHT22;11402;51.374;6.594;2024-02-15T16:53:12;15.00;99.90
22471;DHT22;11402;51.374;6.594;2024-02-15T16:55:42;15.00;99.90
22471;DHT22;11402;51.374;6.594;2024-02-15T16:58:08;14.90;99.90
22471;DHT22;11402;51.374;6.594;2024-02-15T17:00:35;14.90;99.90
22471;DHT22;11402;51.374;6.594;2024-02-15T17:03:01;14.90;99.90
22471;DHT22;11402;51.374;6.594;2024-02-15T17:05:27;14.90;99.90
22471;DHT22;11402;51.374;6.594;2024-02-15T17:07:53;14.90;99.90
22471;DHT22;11402;51.374;6.594;2024-02-15T17:10:25;14.90;99.90
22471;DHT22;11402;51.374;6.594;2024-02-15T17:12:51;14.80;99.90
22471;DHT22;11402;51.374;6.594;2024-02-15T17:15:18;14.70;99.90
22471;DHT22;11402;51.374;6.594;2024-02-15T17:17:44;14.70;99.90
22471;DHT22;11402;51.374;6.594;2024-02-15T17:20:11;14.70;99.90
22471;DHT22;11402;51.374;6.594;2024-02-15T17:22:44;14.70;99.90
22471;DHT22;11402;51.374;6.594;2024-02-15T17:25:11;14.70;99.90
22471;DHT22;11402;51.374;6.594;2024-02-15T17:27:40;14.70;99.90
22471;DHT22;11402;51.374;6.594;2024-02-15T17:30:12;14.70;99.90
22471;DHT22;11402;51.374;6.594;2024-02-15T17:32:39;14.70;99.90
22471;DHT22;11402;51.374;6.594;2024-02-15T17:35:07;14.60;99.90
22471;DHT22;11402;51.374;6.594;2024-02-15T17:37:34;14.60;99.90
22471;DHT22;11402;51.374;6.594;2024-02-15T17:39:59;14.60;99.90
22471;DHT22;11402;51.374;6.594;2024-02-15T17:42:25;14.50;99.90
22471;DHT22;11402;51.374;6.594;2024-02-15T17:44:51;14.50;99.90
22471;DHT22;11402;51.374;6.594;2024-02-15T17:47:17;14.40;99.90
22471;DHT22;11402;51.374;6.594;2024-02-15T17:49:42;14.40;99.90
22471;DHT22;11402;51.374;6.594;2024-02-15T17:52:08;14.40;99.90
22471;DHT22;11402;51.374;6.594;2024-02-15T17:54:34;14.40;99.90
22471;DHT22;11402;51.374;6.594;2024-02-15T17:57:03;14.40;99.90
22471;DHT22;11402;51.374;6.594;2024-02-15T17:59:29;14.40;99.90
22471;DHT22;11402;51.374;6.594;2024-02-15T18:01:54;14.40;99.90
22471;DHT22;11402;51.374;6.594;2024-02-15T18:04:23;14.40;99.90
22471;DHT22;11402;51.374;6.594;2024-02-15T18:06:49;14.30;99.90
22471;DHT22;11402;51.374;6.594;2024-02-15T18:09:15;14.30;99.90
22471;DHT22;11402;51.374;6.594;2024-02-15T18:11:40;14.30;99.90
22471;DHT22;11402;51.374;6.594;2024-02-15T18:14:07;14.30;99.90
22471;DHT22;11402;51.374;6.594;2024-02-15T18:16:32;14.20;99.90
22471;DHT22;11402;51.374;6.594;2024-02-15T18:18:57;14.20;99.90
22471;DHT22;11402;51.374;6.594;2024-02-15T18:21:23;14.20;99.90
22471;DHT22;11402;51.374;6.594;2024-02-15T18:23:50;14.20;99.90
22471;DHT22;11402;51.374;6.594;2024-02-15T18:26:28;14.20;99.90
22471;DHT22;11402;51.374;6.594;2024-02-15T18:28:54;14.20;99.90
22471;DHT22;11402;51.374;6.594;2024-02-15T18:31:19;14.20;99.90
22471;DHT22;11402;51.374;6.594;2024-02-15T18:33:45;14.20;99.90
22471;DHT22;11402;51.374;6.594;2024-02-15T18:36:11;14.10;99.90
22471;DHT22;11402;51.374;6.594;2024-02-15T18:38:36;14.10;99.90